createdAt,value
2018-10-01T00:00:34.592Z,6.30
2018-10-01T00:04:42.730Z,6.30
2018-10-01T00:08:50.877Z,6.30
2018-10-01T00:12:59.405Z,6.30
2018-10-01T00:17:07.545Z,6.40
2018-10-01T00:21:21.124Z,6.40
2018-10-01T00:25:29.261Z,6.50
2018-10-01T00:29:37.443Z,6.60
2018-10-01T00:33:45.572Z,6.70
2018-10-01T00:37:53.704Z,6.90
2018-10-01T00:42:01.849Z,7.00
2018-10-01T00:46:09.983Z,7.10
2018-10-01T00:50:18.122Z,7.20
2018-10-01T00:54:26.261Z,7.30
2018-10-01T00:58:34.398Z,7.40
2018-10-01T01:02:42.561Z,7.50
2018-10-01T01:06:50.713Z,7.50
2018-10-01T01:10:58.864Z,7.60
2018-10-01T01:15:07.129Z,7.70
2018-10-01T01:19:15.281Z,7.80
2018-10-01T01:23:23.421Z,8.00
2018-10-01T01:27:31.556Z,8.20
2018-10-01T01:31:39.683Z,8.40
2018-10-01T01:35:47.843Z,8.50
2018-10-01T01:39:55.984Z,8.60
2018-10-01T01:44:04.178Z,8.70
2018-10-01T01:48:12.313Z,8.70
2018-10-01T01:52:20.460Z,8.70
2018-10-01T01:56:28.619Z,8.80
2018-10-01T02:00:36.816Z,8.80
2018-10-01T02:04:44.984Z,8.80
2018-10-01T02:08:53.152Z,8.80
2018-10-01T02:13:01.292Z,8.80
2018-10-01T02:17:09.416Z,8.70
2018-10-01T02:21:17.552Z,8.70
2018-10-01T02:33:41.544Z,8.70
2018-10-01T02:37:49.680Z,8.70
2018-10-01T02:41:57.815Z,8.60
2018-10-01T02:46:06.799Z,8.50
2018-10-01T02:50:15.016Z,8.50
2018-10-01T02:54:29.653Z,8.50
2018-10-01T02:58:37.805Z,8.50
2018-10-01T03:02:45.934Z,8.50
2018-10-01T03:06:54.065Z,8.50
2018-10-01T03:11:02.233Z,8.40
2018-10-01T03:15:10.441Z,8.30
2018-10-01T03:19:18.561Z,8.30
2018-10-01T03:23:26.725Z,8.30
2018-10-01T03:27:34.872Z,8.20
2018-10-01T03:35:50.964Z,8.10
2018-10-01T03:39:59.157Z,8.10
2018-10-01T03:44:07.356Z,8.10
2018-10-01T03:52:23.425Z,8.20
2018-10-01T03:56:31.573Z,8.20
2018-10-01T04:00:39.729Z,8.30
2018-10-01T04:04:47.908Z,8.30
2018-10-01T04:08:56.110Z,8.30
2018-10-01T04:13:04.245Z,8.30
2018-10-01T04:17:12.454Z,8.40
2018-10-01T04:21:20.607Z,8.40
2018-10-01T04:25:28.831Z,8.50
2018-10-01T04:29:36.984Z,8.60
2018-10-01T04:33:45.191Z,8.60
2018-10-01T04:37:53.340Z,8.70
2018-10-01T04:42:01.533Z,8.70
2018-10-01T04:46:09.692Z,8.70
2018-10-01T04:54:25.908Z,8.90
2018-10-01T04:58:34.214Z,8.90
2018-10-01T05:02:42.231Z,9.00
2018-10-01T05:06:50.399Z,9.00
2018-10-01T05:10:58.832Z,9.10
2018-10-01T05:15:06.997Z,9.10
2018-10-01T05:19:15.152Z,9.20
2018-10-01T05:23:23.324Z,9.20
2018-10-01T05:27:31.504Z,9.20
2018-10-01T05:31:39.683Z,9.30
2018-10-01T05:35:47.853Z,9.30
2018-10-01T05:39:56.024Z,9.40
2018-10-01T05:44:04.188Z,9.40
2018-10-01T05:48:12.361Z,9.40
2018-10-01T05:52:20.536Z,9.40
2018-10-01T05:56:28.692Z,9.40
2018-10-01T06:00:36.872Z,9.40
2018-10-01T06:04:45.074Z,9.40
2018-10-01T06:08:53.192Z,9.50
2018-10-01T06:13:01.336Z,9.60
2018-10-01T06:17:09.873Z,9.70
2018-10-01T06:21:18.011Z,9.70
2018-10-01T06:25:26.149Z,9.80
2018-10-01T06:29:34.296Z,9.80
2018-10-01T06:33:42.441Z,9.80
2018-10-01T06:41:59.067Z,9.90
2018-10-01T06:46:07.452Z,9.90
2018-10-01T06:50:15.626Z,10.00
2018-10-01T06:54:23.761Z,10.10
2018-10-01T06:58:31.908Z,10.10
2018-10-01T07:02:40.065Z,10.10
2018-10-01T07:06:48.224Z,10.10
2018-10-01T07:10:56.386Z,10.10
2018-10-01T07:15:04.548Z,10.20
2018-10-01T07:19:12.752Z,10.10
2018-10-01T07:23:21.047Z,10.10
2018-10-01T07:27:29.118Z,10.20
2018-10-01T07:31:37.312Z,10.40
2018-10-01T07:35:45.455Z,10.80
2018-10-01T07:39:53.580Z,11.00
2018-10-01T07:44:01.760Z,11.00
2018-10-01T07:48:09.900Z,11.00
2018-10-01T07:52:18.261Z,10.90
2018-10-01T07:56:26.738Z,10.90
2018-10-01T08:00:34.881Z,11.10
2018-10-01T08:04:43.021Z,11.30
2018-10-01T08:08:51.157Z,11.60
2018-10-01T08:12:59.524Z,11.90
2018-10-01T08:17:07.676Z,12.00
2018-10-01T08:21:15.832Z,12.30
2018-10-01T08:25:24.020Z,12.30
2018-10-01T08:29:32.204Z,12.20
2018-10-01T08:33:40.342Z,12.30
2018-10-01T08:41:56.401Z,12.30
2018-10-01T08:46:04.621Z,12.70
2018-10-01T08:51:16.101Z,13.00
2018-10-01T08:55:24.392Z,13.10
2018-10-01T08:59:32.990Z,12.70
2018-10-01T09:03:41.148Z,12.60
2018-10-01T09:07:49.338Z,12.70
2018-10-01T09:11:57.600Z,13.20
2018-10-01T09:16:05.832Z,13.80
2018-10-01T09:20:14.020Z,13.60
2018-10-01T09:24:22.152Z,13.90
2018-10-01T09:28:30.388Z,14.10
2018-10-01T09:32:38.603Z,13.80
2018-10-01T09:36:46.723Z,13.90
2018-10-01T09:40:54.879Z,14.00
2018-10-01T09:45:03.064Z,13.90
2018-10-01T09:49:11.220Z,14.00
2018-10-01T09:53:19.419Z,14.60
2018-10-01T09:57:27.603Z,14.30
2018-10-01T10:01:35.752Z,13.90
2018-10-01T10:05:43.921Z,14.70
2018-10-01T10:09:52.099Z,15.20
2018-10-01T10:14:00.262Z,14.80
2018-10-01T10:18:08.424Z,14.30
2018-10-01T10:22:17.558Z,14.00
2018-10-01T10:26:25.753Z,13.80
2018-10-01T10:30:33.882Z,14.00
2018-10-01T10:34:42.012Z,14.30
2018-10-01T10:38:50.157Z,14.20
2018-10-01T10:42:58.315Z,14.10
2018-10-01T10:47:06.448Z,13.70
2018-10-01T10:51:14.640Z,13.50
2018-10-01T10:55:22.782Z,14.00
2018-10-01T10:59:30.977Z,15.00
2018-10-01T11:03:39.137Z,15.30
2018-10-01T11:07:47.288Z,14.80
2018-10-01T11:11:55.428Z,14.10
2018-10-01T11:16:03.601Z,13.30
2018-10-01T11:20:11.885Z,12.60
2018-10-01T11:24:19.961Z,12.20
2018-10-01T11:28:28.116Z,11.90
2018-10-01T11:32:36.268Z,11.90
2018-10-01T11:36:44.451Z,12.60
2018-10-01T11:40:52.600Z,13.20
2018-10-01T11:45:00.825Z,13.80
2018-10-01T11:49:08.915Z,14.40
2018-10-01T11:53:17.081Z,15.00
2018-10-01T11:57:25.338Z,15.30
2018-10-01T12:01:33.777Z,15.00
2018-10-01T12:05:42.852Z,14.10
2018-10-01T12:09:51.149Z,13.20
2018-10-01T12:13:59.206Z,12.70
2018-10-01T12:18:07.366Z,12.50
2018-10-01T12:22:15.635Z,12.90
2018-10-01T12:26:23.836Z,13.50
2018-10-01T12:30:32.030Z,13.30
2018-10-01T12:34:40.173Z,12.50
2018-10-01T12:38:48.336Z,11.90
2018-10-01T12:42:56.549Z,11.80
2018-10-01T12:47:04.657Z,12.20
2018-10-01T12:51:12.799Z,12.40
2018-10-01T12:55:21.004Z,12.30
2018-10-01T12:59:29.259Z,11.90
2018-10-01T13:07:45.253Z,12.30
2018-10-01T13:11:53.412Z,12.70
2018-10-01T13:16:01.579Z,13.50
2018-10-01T13:20:09.765Z,13.80
2018-10-01T13:24:18.164Z,13.70
2018-10-01T13:28:26.228Z,13.90
2018-10-01T13:32:34.381Z,14.10
2018-10-01T13:36:42.636Z,14.40
2018-10-01T13:40:50.765Z,14.00
2018-10-01T13:44:58.912Z,14.10
2018-10-01T13:49:07.104Z,14.00
2018-10-01T13:53:15.232Z,14.10
2018-10-01T13:57:23.384Z,14.20
2018-10-01T14:01:31.563Z,13.90
2018-10-01T14:05:39.769Z,13.80
2018-10-01T14:09:47.908Z,13.80
2018-10-01T14:13:56.116Z,14.30
2018-10-01T14:22:12.172Z,13.80
2018-10-01T14:26:20.321Z,13.80
2018-10-01T14:30:28.533Z,13.90
2018-10-01T14:34:36.620Z,13.60
2018-10-01T14:38:44.764Z,13.60
2018-10-01T14:42:52.970Z,13.80
2018-10-01T14:47:01.082Z,14.20
2018-10-01T14:51:09.276Z,14.30
2018-10-01T14:55:17.434Z,14.30
2018-10-01T14:59:25.565Z,13.70
2018-10-01T15:03:33.781Z,13.20
2018-10-01T15:07:41.920Z,12.70
2018-10-01T15:11:50.065Z,12.40
2018-10-01T15:15:58.331Z,12.20
2018-10-01T15:20:06.501Z,12.30
2018-10-01T15:24:14.789Z,12.50
2018-10-01T15:32:30.824Z,13.00
2018-10-01T15:36:39.097Z,13.00
2018-10-01T15:40:47.215Z,12.80
2018-10-01T15:44:55.448Z,12.60
2018-10-01T15:49:03.645Z,12.20
2018-10-01T15:53:11.809Z,11.90
2018-10-01T15:57:20.160Z,11.70
2018-10-01T16:01:28.185Z,11.60
2018-10-01T16:05:36.373Z,11.50
2018-10-01T16:09:44.566Z,11.60
2018-10-01T16:13:52.717Z,11.50
2018-10-01T16:18:00.940Z,11.30
2018-10-01T16:22:09.078Z,11.10
2018-10-01T16:26:17.231Z,10.90
2018-10-01T16:30:25.420Z,10.70
2018-10-01T16:34:33.564Z,10.60
2018-10-01T16:38:42.024Z,10.50
2018-10-01T16:42:50.295Z,10.40
2018-10-01T16:46:58.473Z,10.30
2018-10-01T16:51:06.665Z,10.20
2018-10-01T16:55:14.804Z,10.10
2018-10-01T16:59:22.986Z,10.00
2018-10-01T17:03:31.144Z,10.00
2018-10-01T17:07:39.284Z,9.80
2018-10-01T17:11:47.476Z,9.70
2018-10-01T17:15:55.852Z,9.50
2018-10-01T17:20:04.124Z,9.40
2018-10-01T17:24:12.292Z,9.30
2018-10-01T17:28:20.448Z,9.20
2018-10-01T17:32:28.670Z,9.10
2018-10-01T17:36:36.833Z,9.10
2018-10-01T17:40:44.992Z,9.00
2018-10-01T17:44:53.149Z,9.00
2018-10-01T17:49:01.317Z,8.90
2018-10-01T17:53:09.495Z,8.90
2018-10-01T17:57:17.644Z,8.80
2018-10-01T18:01:25.864Z,8.80
2018-10-01T18:05:34.013Z,8.70
2018-10-01T18:09:42.189Z,8.60
2018-10-01T18:13:50.400Z,8.50
2018-10-01T18:17:58.633Z,8.50
2018-10-01T18:22:06.741Z,8.40
2018-10-01T18:26:14.876Z,8.40
2018-10-01T18:30:23.103Z,8.20
2018-10-01T18:34:31.276Z,8.10
2018-10-01T18:38:39.429Z,8.00
2018-10-01T18:42:47.584Z,8.00
2018-10-01T18:46:55.784Z,8.00
2018-10-01T18:51:03.923Z,8.10
2018-10-01T18:55:12.089Z,8.10
2018-10-01T18:59:20.242Z,8.10
2018-10-01T19:07:36.612Z,8.10
2018-10-01T19:11:44.777Z,8.10
2018-10-01T19:15:52.959Z,8.00
2018-10-01T19:20:01.116Z,7.90
2018-10-01T19:24:09.320Z,7.70
2018-10-01T19:28:17.465Z,7.60
2018-10-01T19:32:25.616Z,7.50
2018-10-01T19:36:33.781Z,7.40
2018-10-01T19:40:41.980Z,7.40
2018-10-01T19:44:50.162Z,7.30
2018-10-01T19:53:06.609Z,7.30
2018-10-01T19:57:14.833Z,7.30
2018-10-01T20:01:22.977Z,7.40
2018-10-01T20:05:31.140Z,7.40
2018-10-01T20:09:42.928Z,7.50
2018-10-01T20:13:51.224Z,7.50
2018-10-01T20:17:59.390Z,7.60
2018-10-01T20:22:11.244Z,7.70
2018-10-01T20:26:19.379Z,7.80
2018-10-01T20:30:27.584Z,7.80
2018-10-01T20:34:35.772Z,7.80
2018-10-01T20:38:43.964Z,7.90
2018-10-01T20:42:52.102Z,7.90
2018-10-01T20:47:00.443Z,7.90
2018-10-01T20:51:08.491Z,7.90
2018-10-01T20:55:16.662Z,7.90
2018-10-01T20:59:24.941Z,7.90
2018-10-01T21:03:33.022Z,7.80
2018-10-01T21:07:41.203Z,7.80
2018-10-01T21:11:49.390Z,7.70
2018-10-01T21:15:57.540Z,7.60
2018-10-01T21:20:05.752Z,7.50
2018-10-01T21:24:13.903Z,7.30
2018-10-01T21:28:22.041Z,7.10
2018-10-01T21:32:30.192Z,6.90
2018-10-01T21:36:38.337Z,6.80
2018-10-01T21:40:46.517Z,6.70
2018-10-01T21:44:54.656Z,6.60
2018-10-01T21:49:02.792Z,6.60
2018-10-01T21:53:10.956Z,6.60
2018-10-01T21:57:19.403Z,6.60
2018-10-01T22:01:32.906Z,6.70
2018-10-01T22:05:41.078Z,6.80
2018-10-01T22:09:49.793Z,6.80
2018-10-01T22:13:57.983Z,6.90
2018-10-01T22:18:06.126Z,7.00
2018-10-01T22:22:14.292Z,7.00
2018-10-01T22:30:30.396Z,7.10
2018-10-01T22:34:38.577Z,7.20
2018-10-01T22:38:46.713Z,7.20
2018-10-01T22:42:54.865Z,7.30
2018-10-01T22:47:03.036Z,7.30
2018-10-01T22:51:11.180Z,7.30
2018-10-01T22:55:19.368Z,7.30
2018-10-01T22:59:27.505Z,7.30
2018-10-01T23:03:35.644Z,7.30
2018-10-01T23:07:43.809Z,7.20
2018-10-01T23:11:51.945Z,7.20
2018-10-01T23:16:00.139Z,7.10
2018-10-01T23:20:08.313Z,7.00
2018-10-01T23:24:16.461Z,6.90
2018-10-01T23:28:24.612Z,6.90
2018-10-01T23:32:32.768Z,6.70
2018-10-01T23:36:40.931Z,6.60
2018-10-01T23:40:49.112Z,6.50
2018-10-01T23:44:57.315Z,6.50
2018-10-01T23:49:05.476Z,6.60
2018-10-01T23:53:13.644Z,6.70
2018-10-01T23:57:21.813Z,6.70
